createdAt,value
2023-03-05T00:01:18.459Z,5.80
2023-03-05T00:03:46.670Z,4.75
2023-03-05T00:06:14.743Z,5.60
2023-03-05T00:08:41.927Z,4.13
2023-03-05T00:11:11.364Z,4.57
2023-03-05T00:13:39.591Z,4.18
2023-03-05T00:16:09.298Z,5.10
2023-03-05T00:18:37.340Z,6.22
2023-03-05T00:21:05.565Z,5.97
2023-03-05T00:23:32.658Z,7.50
2023-03-05T00:26:03.838Z,6.88
2023-03-05T00:28:30.869Z,6.82
2023-03-05T00:31:01.636Z,4.97
2023-03-05T00:33:28.973Z,5.93
2023-03-05T00:35:56.084Z,5.78
2023-03-05T00:38:23.296Z,4.53
2023-03-05T00:40:50.965Z,5.50
2023-03-05T00:43:18.068Z,7.28
2023-03-05T00:45:45.151Z,6.38
2023-03-05T00:48:12.186Z,3.97
2023-03-05T00:50:39.237Z,6.78
2023-03-05T00:53:06.415Z,4.28
2023-03-05T00:55:33.442Z,5.43
2023-03-05T00:58:00.470Z,5.05
2023-03-05T01:00:27.565Z,4.43
2023-03-05T01:02:54.677Z,4.50
2023-03-05T01:05:21.852Z,3.15
2023-03-05T01:07:52.387Z,6.20
2023-03-05T01:10:20.013Z,4.60
2023-03-05T01:12:47.069Z,6.32
2023-03-05T01:15:14.289Z,4.72
2023-03-05T01:17:41.493Z,7.72
2023-03-05T01:20:09.445Z,7.63
2023-03-05T01:22:36.518Z,9.32
2023-03-05T01:25:03.720Z,5.15
2023-03-05T01:27:30.705Z,6.47
2023-03-05T01:29:58.269Z,5.03
2023-03-05T01:32:25.420Z,5.13
2023-03-05T01:34:52.473Z,11.48
2023-03-05T01:37:19.575Z,4.22
2023-03-05T01:39:46.696Z,7.15
2023-03-05T01:42:13.717Z,5.07
2023-03-05T01:44:59.765Z,10.60
2023-03-05T01:47:26.806Z,8.43
2023-03-05T01:49:54.679Z,7.15
2023-03-05T01:52:25.947Z,9.90
2023-03-05T01:55:16.022Z,4.28
2023-03-05T01:57:56.260Z,4.75
2023-03-05T02:00:29.953Z,8.88
2023-03-05T02:03:02.510Z,5.55
2023-03-05T02:05:32.796Z,4.60
2023-03-05T02:08:01.804Z,4.15
2023-03-05T02:10:45.516Z,6.20
2023-03-05T02:13:36.013Z,7.68
2023-03-05T02:16:03.694Z,4.47
2023-03-05T02:18:30.916Z,3.97
2023-03-05T02:20:58.221Z,5.53
2023-03-05T02:23:31.131Z,6.97
2023-03-05T02:25:58.260Z,6.00
2023-03-05T02:28:32.661Z,6.38
2023-03-05T02:31:00.554Z,4.82
2023-03-05T02:33:27.643Z,7.47
2023-03-05T02:35:54.757Z,8.00
2023-03-05T02:38:22.120Z,6.13
2023-03-05T02:40:49.161Z,6.32
2023-03-05T02:43:16.391Z,5.45
2023-03-05T02:45:43.567Z,5.18
2023-03-05T02:48:10.932Z,6.35
2023-03-05T02:50:39.913Z,5.65
2023-03-05T02:53:07.102Z,5.20
2023-03-05T02:55:35.228Z,6.13
2023-03-05T02:58:02.273Z,8.38
2023-03-05T03:00:29.832Z,7.45
2023-03-05T03:02:57.066Z,11.18
2023-03-05T03:05:24.232Z,8.05
2023-03-05T03:07:51.812Z,9.98
2023-03-05T03:10:18.933Z,10.48
2023-03-05T03:12:46.228Z,10.43
2023-03-05T03:15:16.061Z,9.38
2023-03-05T03:17:43.222Z,9.73
2023-03-05T03:20:14.381Z,17.05
2023-03-05T03:22:43.314Z,18.60
2023-03-05T03:25:11.908Z,9.40
2023-03-05T03:27:39.081Z,22.13
2023-03-05T03:30:06.753Z,10.35
2023-03-05T03:32:34.561Z,11.45
2023-03-05T03:35:01.952Z,9.30
2023-03-05T03:37:29.680Z,8.07
2023-03-05T03:39:57.182Z,8.63
2023-03-05T03:42:24.625Z,6.43
2023-03-05T03:44:52.329Z,7.50
2023-03-05T03:47:19.425Z,7.53
2023-03-05T03:49:46.480Z,2.90
2023-03-05T03:52:13.543Z,5.47
2023-03-05T03:54:41.234Z,4.95
2023-03-05T03:57:08.338Z,3.63
2023-03-05T03:59:35.407Z,5.53
2023-03-05T04:02:02.488Z,5.38
2023-03-05T04:04:30.651Z,6.13
2023-03-05T04:06:57.907Z,3.35
2023-03-05T04:09:25.009Z,3.92
2023-03-05T04:11:52.086Z,4.25
2023-03-05T04:14:19.185Z,5.15
2023-03-05T04:16:46.179Z,6.55
2023-03-05T04:19:13.472Z,4.80
2023-03-05T04:21:40.572Z,2.45
2023-03-05T04:24:08.605Z,7.25
2023-03-05T04:26:36.126Z,3.45
2023-03-05T04:29:03.515Z,3.05
2023-03-05T04:31:30.670Z,3.47
2023-03-05T04:33:57.753Z,3.85
2023-03-05T04:36:24.868Z,4.45
2023-03-05T04:38:51.966Z,2.58
2023-03-05T04:41:19.428Z,2.95
2023-03-05T04:43:46.510Z,6.45
2023-03-05T04:46:13.630Z,3.58
2023-03-05T04:48:40.916Z,2.80
2023-03-05T04:51:07.986Z,2.35
2023-03-05T04:53:35.602Z,2.67
2023-03-05T04:56:02.777Z,1.90
2023-03-05T04:58:29.852Z,1.58
2023-03-05T05:01:07.366Z,2.97
2023-03-05T05:03:34.636Z,1.23
2023-03-05T05:06:02.754Z,1.45
2023-03-05T05:08:30.140Z,1.20
2023-03-05T05:11:05.158Z,2.33
2023-03-05T05:13:33.308Z,1.92
2023-03-05T05:16:00.791Z,1.95
2023-03-05T05:18:28.034Z,1.73
2023-03-05T05:20:55.045Z,2.25
2023-03-05T05:23:22.249Z,1.98
2023-03-05T05:26:06.753Z,1.58
2023-03-05T05:28:35.298Z,2.60
2023-03-05T05:31:08.050Z,2.88
2023-03-05T05:33:35.398Z,1.20
2023-03-05T05:36:04.880Z,2.17
2023-03-05T05:38:32.355Z,1.80
2023-03-05T05:41:08.011Z,3.05
2023-03-05T05:43:35.365Z,1.20
2023-03-05T05:46:09.094Z,1.85
2023-03-05T05:48:36.881Z,1.38
2023-03-05T05:51:08.585Z,1.35
2023-03-05T05:53:35.635Z,1.55
2023-03-05T05:56:05.613Z,1.40
2023-03-05T05:58:32.738Z,1.75
2023-03-05T06:01:00.303Z,1.00
2023-03-05T06:03:27.520Z,1.23
2023-03-05T06:05:54.831Z,0.68
2023-03-05T06:08:21.808Z,2.50
2023-03-05T06:10:57.121Z,1.65
2023-03-05T06:13:24.195Z,1.48
2023-03-05T06:15:59.367Z,0.82
2023-03-05T06:18:26.753Z,0.98
2023-03-05T06:21:04.771Z,1.38
2023-03-05T06:23:32.043Z,1.88
2023-03-05T06:26:03.952Z,0.68
2023-03-05T06:28:32.069Z,1.52
2023-03-05T06:31:07.708Z,1.15
2023-03-05T06:33:35.464Z,1.95
2023-03-05T06:36:06.968Z,1.00
2023-03-05T06:38:34.554Z,1.70
2023-03-05T06:41:05.993Z,2.30
2023-03-05T06:43:33.808Z,1.55
2023-03-05T06:46:09.194Z,1.00
2023-03-05T06:48:36.274Z,1.02
2023-03-05T06:51:03.485Z,2.35
2023-03-05T06:53:31.211Z,0.75
2023-03-05T06:56:01.634Z,1.23
2023-03-05T06:58:28.694Z,1.85
2023-03-05T07:00:55.866Z,1.52
2023-03-05T07:03:22.971Z,1.40
2023-03-05T07:05:50.015Z,0.70
2023-03-05T07:08:17.502Z,1.13
2023-03-05T07:10:44.910Z,1.80
2023-03-05T07:13:11.922Z,1.95
2023-03-05T07:15:40.566Z,1.50
2023-03-05T07:18:07.854Z,1.63
2023-03-05T07:20:36.230Z,2.53
2023-03-05T07:23:04.204Z,0.75
2023-03-05T07:25:31.344Z,3.78
2023-03-05T07:27:58.797Z,0.80
2023-03-05T07:30:25.884Z,0.98
2023-03-05T07:32:52.904Z,1.20
2023-03-05T07:35:20.061Z,2.10
2023-03-05T07:37:47.313Z,2.88
2023-03-05T07:40:14.395Z,1.30
2023-03-05T07:42:41.497Z,2.53
2023-03-05T07:45:09.381Z,1.27
2023-03-05T07:47:37.024Z,1.25
2023-03-05T07:50:04.696Z,2.92
2023-03-05T07:52:31.795Z,1.95
2023-03-05T07:54:58.796Z,2.05
2023-03-05T07:57:26.358Z,2.50
2023-03-05T07:59:53.379Z,1.85
2023-03-05T08:02:21.060Z,1.30
2023-03-05T08:04:48.409Z,1.52
2023-03-05T08:07:18.279Z,1.45
2023-03-05T08:09:45.462Z,1.58
2023-03-05T08:12:12.510Z,2.45
2023-03-05T08:14:39.654Z,1.85
2023-03-05T08:17:07.347Z,3.42
2023-03-05T08:19:34.453Z,1.70
2023-03-05T08:22:01.501Z,1.77
2023-03-05T08:24:29.992Z,2.60
2023-03-05T08:26:58.011Z,2.30
2023-03-05T08:29:25.572Z,1.48
2023-03-05T08:31:53.932Z,1.08
2023-03-05T08:34:24.097Z,1.95
2023-03-05T08:36:51.180Z,1.90
2023-03-05T08:39:18.963Z,3.08
2023-03-05T08:41:46.381Z,1.98
2023-03-05T08:44:13.401Z,1.02
2023-03-05T08:46:40.826Z,1.65
2023-03-05T08:49:08.291Z,1.92
2023-03-05T08:51:38.347Z,2.95
2023-03-05T08:54:07.414Z,1.90
2023-03-05T08:56:35.660Z,1.55
2023-03-05T08:59:03.772Z,0.55
2023-03-05T09:01:32.206Z,3.33
2023-03-05T09:04:00.377Z,2.38
2023-03-05T09:06:28.238Z,2.15
2023-03-05T09:08:55.412Z,3.00
2023-03-05T09:11:23.012Z,9.57
2023-03-05T09:13:50.015Z,9.13
2023-03-05T09:16:19.402Z,18.08
2023-03-05T09:18:46.726Z,14.05
2023-03-05T09:21:16.987Z,16.08
2023-03-05T09:23:45.184Z,11.55
2023-03-05T09:26:13.524Z,14.40
2023-03-05T09:28:41.085Z,12.07
2023-03-05T09:31:09.478Z,10.85
2023-03-05T09:33:37.271Z,16.10
2023-03-05T09:36:06.477Z,14.27
2023-03-05T09:38:33.814Z,12.00
2023-03-05T09:41:22.871Z,17.00
2023-03-05T09:44:17.484Z,12.60
2023-03-05T09:47:18.520Z,8.18
2023-03-05T09:49:59.614Z,5.68
2023-03-05T09:52:47.701Z,15.63
2023-03-05T09:55:34.290Z,10.15
2023-03-05T09:58:15.108Z,11.23
2023-03-05T10:00:47.425Z,23.27
2023-03-05T10:03:25.807Z,18.15
2023-03-05T10:06:01.852Z,22.27
2023-03-05T10:08:41.126Z,18.85
2023-03-05T10:11:28.417Z,35.53
2023-03-05T10:13:55.555Z,26.55
2023-03-05T10:16:36.787Z,22.92
2023-03-05T10:19:13.456Z,18.42
2023-03-05T10:21:52.562Z,14.98
2023-03-05T10:24:53.005Z,13.05
2023-03-05T10:27:30.446Z,45.33
2023-03-05T10:30:03.144Z,31.55
2023-03-05T10:32:42.498Z,20.55
2023-03-05T10:35:30.849Z,24.70
2023-03-05T10:38:19.983Z,22.20
2023-03-05T10:40:52.378Z,18.23
2023-03-05T10:43:22.352Z,20.77
2023-03-05T10:45:53.126Z,25.60
2023-03-05T10:48:42.550Z,29.73
2023-03-05T10:51:35.361Z,34.25
2023-03-05T10:54:29.907Z,30.63
2023-03-05T10:57:20.899Z,37.22
2023-03-05T10:59:52.837Z,30.42
2023-03-05T11:02:21.516Z,44.00
2023-03-05T11:04:49.933Z,25.63
2023-03-05T11:07:16.899Z,28.88
2023-03-05T11:10:02.819Z,32.17
2023-03-05T11:12:33.152Z,19.80
2023-03-05T11:15:22.940Z,20.52
2023-03-05T11:18:17.302Z,17.95
2023-03-05T11:20:44.454Z,14.50
2023-03-05T11:23:17.088Z,34.03
2023-03-05T11:26:04.016Z,29.92
2023-03-05T11:28:34.214Z,41.92
2023-03-05T11:31:16.293Z,25.35
2023-03-05T11:34:18.853Z,21.10
2023-03-05T11:37:06.802Z,20.63
2023-03-05T11:39:38.500Z,21.70
2023-03-05T11:42:25.420Z,20.80
2023-03-05T11:44:58.579Z,12.95
2023-03-05T11:47:34.519Z,15.50
2023-03-05T11:50:13.140Z,12.35
2023-03-05T11:52:47.268Z,10.68
2023-03-05T11:55:21.337Z,10.30
2023-03-05T11:58:12.946Z,13.70
2023-03-05T12:00:44.830Z,13.68
2023-03-05T12:03:15.968Z,11.80
2023-03-05T12:05:47.283Z,29.65
2023-03-05T12:08:21.711Z,29.92
2023-03-05T12:10:49.083Z,17.05
2023-03-05T12:13:43.994Z,14.18
2023-03-05T12:16:27.326Z,16.02
2023-03-05T12:19:14.289Z,13.70
2023-03-05T12:21:43.332Z,21.23
2023-03-05T12:24:28.137Z,17.38
2023-03-05T12:27:04.332Z,22.63
2023-03-05T12:30:08.263Z,28.30
2023-03-05T12:32:35.608Z,11.77
2023-03-05T12:35:05.013Z,25.50
2023-03-05T12:37:57.942Z,26.08
2023-03-05T12:40:34.092Z,15.43
2023-03-05T12:43:05.178Z,31.40
2023-03-05T12:45:36.112Z,18.30
2023-03-05T12:48:03.079Z,30.88
2023-03-05T12:50:30.563Z,20.23
2023-03-05T12:53:15.386Z,44.97
2023-03-05T12:55:48.628Z,17.75
2023-03-05T12:58:21.670Z,12.35
2023-03-05T13:01:07.928Z,16.30
2023-03-05T13:03:39.302Z,13.13
2023-03-05T13:06:08.466Z,14.55
2023-03-05T13:08:37.583Z,10.88
2023-03-05T13:11:17.300Z,9.63
2023-03-05T13:13:47.032Z,8.90
2023-03-05T13:16:39.162Z,8.43
2023-03-05T13:19:16.648Z,13.02
2023-03-05T13:21:44.662Z,14.70
2023-03-05T13:24:20.391Z,15.43
2023-03-05T13:26:47.834Z,11.90
2023-03-05T13:29:17.750Z,13.23
2023-03-05T13:31:58.078Z,7.43
2023-03-05T13:34:37.480Z,8.13
2023-03-05T13:37:31.203Z,9.80
2023-03-05T13:40:07.501Z,11.07
2023-03-05T13:42:36.412Z,13.68
2023-03-05T13:45:28.957Z,17.95
2023-03-05T13:48:02.004Z,20.98
2023-03-05T13:50:35.080Z,21.95
2023-03-05T13:53:37.806Z,8.82
2023-03-05T13:56:08.234Z,16.17
2023-03-05T13:58:52.661Z,23.55
2023-03-05T14:01:33.317Z,15.45
2023-03-05T14:04:15.729Z,15.23
2023-03-05T14:07:18.843Z,17.40
2023-03-05T14:09:50.441Z,24.25
2023-03-05T14:12:33.191Z,14.05
2023-03-05T14:15:02.526Z,10.85
2023-03-05T14:17:42.610Z,5.95
2023-03-05T14:20:30.009Z,6.25
2023-03-05T14:22:59.822Z,10.65
2023-03-05T14:25:30.199Z,16.52
2023-03-05T14:27:58.573Z,16.20
2023-03-05T14:30:26.655Z,16.85
2023-03-05T14:32:56.093Z,14.05
2023-03-05T14:35:29.211Z,8.32
2023-03-05T14:37:58.817Z,17.83
2023-03-05T14:40:34.359Z,11.15
2023-03-05T14:43:10.920Z,14.75
2023-03-05T14:45:40.336Z,14.48
2023-03-05T14:48:08.499Z,15.07
2023-03-05T14:50:39.076Z,8.45
2023-03-05T14:53:22.507Z,9.05
2023-03-05T14:55:53.916Z,11.50
2023-03-05T14:58:25.461Z,13.93
2023-03-05T15:00:54.361Z,10.75
2023-03-05T15:03:22.711Z,6.22
2023-03-05T15:05:52.888Z,8.60
2023-03-05T15:08:32.579Z,7.18
2023-03-05T15:11:00.941Z,8.60
2023-03-05T15:13:28.028Z,8.68
2023-03-05T15:15:56.022Z,5.32
2023-03-05T15:18:23.984Z,11.15
2023-03-05T15:20:53.283Z,11.27
2023-03-05T15:23:21.288Z,7.53
2023-03-05T15:25:48.448Z,5.25
2023-03-05T15:28:16.031Z,11.20
2023-03-05T15:30:47.612Z,6.65
2023-03-05T15:33:17.430Z,10.48
2023-03-05T15:35:44.927Z,12.85
2023-03-05T15:38:12.229Z,10.07
2023-03-05T15:40:39.461Z,11.90
2023-03-05T15:43:06.490Z,9.57
2023-03-05T15:45:34.233Z,14.25
2023-03-05T15:48:01.298Z,12.27
2023-03-05T15:50:28.326Z,10.20
2023-03-05T15:52:55.520Z,11.38
2023-03-05T15:55:22.868Z,15.15
2023-03-05T15:57:52.185Z,13.20
2023-03-05T16:00:25.649Z,26.00
2023-03-05T16:05:19.984Z,12.63
2023-03-05T16:07:51.320Z,10.27
2023-03-05T16:10:22.626Z,11.48
2023-03-05T16:12:53.744Z,8.32
2023-03-05T16:15:22.090Z,13.40
2023-03-05T16:17:53.898Z,13.45
2023-03-05T16:20:21.538Z,14.50
2023-03-05T16:22:49.598Z,14.90
2023-03-05T16:25:17.123Z,20.05
2023-03-05T16:27:44.471Z,16.02
2023-03-05T16:30:14.355Z,18.23
2023-03-05T16:32:41.617Z,23.90
2023-03-05T16:35:12.132Z,24.73
2023-03-05T16:37:40.339Z,21.35
2023-03-05T16:40:09.867Z,8.73
2023-03-05T16:42:37.068Z,14.07
2023-03-05T16:45:05.779Z,16.98
2023-03-05T16:47:32.767Z,9.10
2023-03-05T16:50:01.088Z,8.65
2023-03-05T16:52:29.181Z,6.85
2023-03-05T16:54:56.306Z,6.45
2023-03-05T16:57:25.820Z,7.50
2023-03-05T16:59:54.714Z,8.80
2023-03-05T17:02:21.760Z,6.43
2023-03-05T17:04:50.758Z,8.65
2023-03-05T17:07:18.680Z,11.13
2023-03-05T17:09:48.138Z,8.98
2023-03-05T17:12:15.265Z,5.53
2023-03-05T17:14:42.388Z,7.20
2023-03-05T17:17:09.458Z,12.93
2023-03-05T17:19:36.581Z,7.57
2023-03-05T17:22:04.578Z,6.07
2023-03-05T17:24:33.121Z,6.90
2023-03-05T17:27:00.900Z,9.07
2023-03-05T17:29:28.125Z,10.27
2023-03-05T17:31:55.244Z,13.73
2023-03-05T17:34:33.286Z,13.07
2023-03-05T17:37:03.320Z,14.05
2023-03-05T17:39:30.837Z,12.32
2023-03-05T17:41:57.957Z,12.07
2023-03-05T17:44:25.074Z,7.82
2023-03-05T17:46:52.263Z,11.15
2023-03-05T17:49:19.298Z,10.52
2023-03-05T17:51:47.100Z,7.03
2023-03-05T17:54:14.241Z,9.20
2023-03-05T17:56:41.242Z,7.30
2023-03-05T17:59:08.817Z,6.05
2023-03-05T18:01:36.118Z,7.97
2023-03-05T18:04:03.508Z,6.90
2023-03-05T18:06:30.668Z,5.35
2023-03-05T18:08:57.916Z,7.90
2023-03-05T18:11:25.164Z,4.43
2023-03-05T18:13:52.300Z,7.55
2023-03-05T18:16:19.422Z,9.82
2023-03-05T18:18:46.923Z,9.65
2023-03-05T18:21:19.876Z,9.60
2023-03-05T18:23:47.176Z,12.63
2023-03-05T18:26:14.305Z,6.38
2023-03-05T18:28:41.374Z,11.98
2023-03-05T18:31:08.683Z,17.38
2023-03-05T18:33:35.998Z,8.10
2023-03-05T18:36:03.356Z,10.73
2023-03-05T18:38:31.733Z,10.88
2023-03-05T18:41:02.979Z,11.52
2023-03-05T18:43:31.034Z,10.98
2023-03-05T18:45:59.114Z,6.50
2023-03-05T18:48:26.734Z,14.63
2023-03-05T18:50:54.184Z,20.17
2023-03-05T18:53:22.493Z,19.48
2023-03-05T18:55:51.420Z,14.27
2023-03-05T18:58:19.479Z,9.02
2023-03-05T19:00:47.469Z,11.45
2023-03-05T19:03:16.010Z,13.38
2023-03-05T19:05:43.560Z,7.72
2023-03-05T19:08:11.569Z,21.88
2023-03-05T19:10:39.295Z,8.32
2023-03-05T19:13:35.120Z,13.32
2023-03-05T19:16:09.963Z,12.02
2023-03-05T19:18:44.048Z,18.63
2023-03-05T19:21:11.779Z,10.35
2023-03-05T19:23:38.825Z,9.00
2023-03-05T19:26:06.045Z,10.52
2023-03-05T19:28:33.817Z,7.75
2023-03-05T19:31:00.880Z,8.13
2023-03-05T19:33:27.949Z,6.07
2023-03-05T19:35:55.135Z,8.80
2023-03-05T19:38:22.466Z,16.70
2023-03-05T19:40:49.530Z,8.23
2023-03-05T19:43:17.946Z,14.35
2023-03-05T19:45:45.098Z,11.27
2023-03-05T19:48:12.250Z,11.23
2023-03-05T19:50:40.752Z,12.70
2023-03-05T19:53:07.791Z,17.88
2023-03-05T19:55:38.728Z,18.27
2023-03-05T19:58:05.838Z,13.15
2023-03-05T20:00:32.856Z,19.60
2023-03-05T20:02:59.975Z,11.73
2023-03-05T20:05:27.154Z,17.27
2023-03-05T20:07:54.248Z,15.80
2023-03-05T20:10:22.135Z,9.70
2023-03-05T20:12:50.794Z,10.70
2023-03-05T20:15:18.699Z,8.82
2023-03-05T20:17:57.929Z,8.80
2023-03-05T20:20:25.279Z,8.45
2023-03-05T20:22:52.466Z,11.02
2023-03-05T20:25:23.050Z,8.82
2023-03-05T20:27:50.104Z,10.38
2023-03-05T20:30:18.255Z,12.45
2023-03-05T20:32:45.662Z,7.70
2023-03-05T20:35:17.834Z,8.93
2023-03-05T20:37:51.815Z,9.45
2023-03-05T20:42:46.142Z,9.07
2023-03-05T20:45:13.284Z,9.15
2023-03-05T20:47:46.671Z,8.23
2023-03-05T20:50:15.135Z,7.70
2023-03-05T20:52:42.395Z,5.97
2023-03-05T20:55:10.303Z,8.25
2023-03-05T20:57:37.452Z,5.68
2023-03-05T21:00:05.184Z,7.85
2023-03-05T21:02:32.337Z,8.45
2023-03-05T21:04:59.382Z,8.55
2023-03-05T21:07:28.364Z,7.22
2023-03-05T21:09:56.036Z,8.55
2023-03-05T21:12:23.097Z,7.68
2023-03-05T21:14:50.172Z,9.10
2023-03-05T21:17:18.334Z,10.27
2023-03-05T21:19:45.418Z,8.35
2023-03-05T21:22:12.449Z,8.30
2023-03-05T21:24:54.297Z,9.45
2023-03-05T21:27:21.409Z,11.57
2023-03-05T21:29:48.449Z,6.93
2023-03-05T21:32:15.762Z,9.07
2023-03-05T21:34:43.892Z,8.02
2023-03-05T21:37:11.414Z,7.47
2023-03-05T21:39:38.502Z,7.32
2023-03-05T21:42:05.657Z,6.00
2023-03-05T21:44:32.703Z,8.07
2023-03-05T21:46:59.808Z,6.72
2023-03-05T21:49:27.352Z,6.85
2023-03-05T21:52:09.732Z,6.53
2023-03-05T21:54:40.876Z,7.47
2023-03-05T21:57:10.733Z,5.93
2023-03-05T21:59:41.761Z,6.00
2023-03-05T22:02:17.052Z,5.90
2023-03-05T22:04:45.467Z,5.00
2023-03-05T22:07:13.326Z,5.47
2023-03-05T22:09:40.406Z,7.47
2023-03-05T22:12:10.418Z,6.15
2023-03-05T22:14:37.433Z,5.60
2023-03-05T22:17:04.586Z,7.93
2023-03-05T22:19:31.656Z,9.52
2023-03-05T22:21:58.814Z,5.53
2023-03-05T22:24:25.948Z,5.40
2023-03-05T22:26:52.995Z,7.70
2023-03-05T22:29:20.044Z,6.80
2023-03-05T22:31:47.077Z,7.57
2023-03-05T22:34:14.177Z,5.32
2023-03-05T22:36:41.274Z,7.32
2023-03-05T22:39:08.406Z,6.30
2023-03-05T22:41:35.400Z,4.32
2023-03-05T22:44:02.552Z,8.57
2023-03-05T22:46:29.667Z,8.50
2023-03-05T22:48:56.791Z,7.72
2023-03-05T22:51:23.960Z,5.28
2023-03-05T22:53:51.535Z,6.32
2023-03-05T22:56:20.397Z,6.55
2023-03-05T22:58:48.056Z,5.82
2023-03-05T23:01:18.635Z,6.22
2023-03-05T23:03:45.960Z,4.65
2023-03-05T23:06:13.115Z,7.30
2023-03-05T23:08:40.204Z,8.63
2023-03-05T23:11:12.624Z,6.60
2023-03-05T23:13:40.795Z,4.55
2023-03-05T23:16:08.684Z,5.82
2023-03-05T23:18:35.867Z,6.10
2023-03-05T23:21:03.061Z,8.95
2023-03-05T23:23:30.129Z,5.93
2023-03-05T23:25:57.155Z,5.88
2023-03-05T23:28:24.258Z,5.53
2023-03-05T23:30:51.383Z,4.38
2023-03-05T23:33:20.834Z,7.43
2023-03-05T23:35:54.160Z,6.80
2023-03-05T23:38:21.886Z,6.18
2023-03-05T23:40:54.251Z,8.25
2023-03-05T23:43:25.330Z,6.13
2023-03-05T23:45:56.815Z,4.88
2023-03-05T23:48:25.550Z,4.88
2023-03-05T23:50:53.045Z,10.90
2023-03-05T23:53:31.428Z,5.38
2023-03-05T23:55:58.528Z,6.10
2023-03-05T23:58:26.043Z,6.28
